Wahoo, NE

3:34 PM CST on November 22, 2014 (GMT -0600)
Lincoln Municipal | Change Station
CLOSE
Current Station
Airport
Location: Lincoln,
Elevation: 1188 ft
Nearby Weather Stations

Elev 1188 ft 40.85 °N, 96.76 °W | Updated 40 minutes ago

Clear
Clear
58 °F
Feels Like 58 °F
N
18
Wind Variable Wind from South

Today
High -- | Low -- °F
--% Chance of Precip.
Yesterday
High -- | Low -- °F
Precip. -- in
7:22 AM 5:02 PM
New Moon, 0% visible
Pressure 29.67 in
Visibility 9.0 miles
Clouds Clear
Dew Point 43 °F
Humidity 58%
Rainfall 0.00 in
Snow Depth Not available.
UV 1 out of 12
Pollen .10 out of 12
Air Quality Not available.
Flu Activity Not available.
METAR KLNK 222054Z 18016KT 9SM CLR 14/06 A2966 RMK AO2 SLP046 T01440061 58049

More Conditions Fewer Conditions

Pressure 29.67 in
Visibility 9.0 miles
Clouds Clear
Dew Point 43 °F
Humidity 58%
Rainfall 0.00 in
Snow Depth Not available.
UV 1 out of 12
Pollen .10 out of 12
Air Quality Not available.
Flu Activity Not available.
METAR KLNK 222054Z 18016KT 9SM CLR 14/06 A2966 RMK AO2 SLP046 T01440061 58049

More Conditions Fewer Conditions

10-Day Weather Forecast

Almanac

Astronomy

Nov. 22, 2014 Rise Set
Actual Time
Civil Twilight
Nautical Twilight
Astronomical Twilight
Moon
Length of Visible Light
Length of Day
Tomorrow will be .
, % of the Moon is Illuminated

Today's Extremes

State Highs State Lows

Community

WunderPhotos

Upload Photos

1,772,912 photos uploaded!

WunderBlogs® & News

Nearby

Air Quality

  Air Quality AQ Index Pollutant
Not available.

Snow Depth

Station Depth Elevation

Earthquake Activity

City Distance Mag. Time & Date
Minimum magnitude displayed is 2.5.

Coastal Water Temperatures

Place Temperature

Nearby Weather Stations